createdAt,value
2018-07-01T00:00:22.038Z,15.09
2018-07-01T00:02:51.151Z,15.09
2018-07-01T00:05:20.276Z,15.06
2018-07-01T00:07:49.398Z,15.05
2018-07-01T00:10:18.539Z,15.02
2018-07-01T00:12:47.689Z,14.92
2018-07-01T00:15:16.806Z,14.85
2018-07-01T00:17:45.926Z,14.85
2018-07-01T00:20:15.036Z,14.83
2018-07-01T00:22:44.155Z,14.76
2018-07-01T00:25:13.274Z,14.75
2018-07-01T00:27:42.415Z,14.72
2018-07-01T00:30:11.536Z,14.69
2018-07-01T00:32:40.668Z,14.67
2018-07-01T00:35:09.783Z,14.65
2018-07-01T00:37:38.931Z,14.59
2018-07-01T00:40:08.059Z,14.59
2018-07-01T00:42:37.203Z,14.52
2018-07-01T00:45:06.349Z,14.47
2018-07-01T00:47:35.460Z,14.47
2018-07-01T00:50:05.559Z,14.42
2018-07-01T00:52:34.697Z,14.32
2018-07-01T00:55:03.823Z,14.35
2018-07-01T00:57:32.946Z,14.38
2018-07-01T01:00:02.064Z,14.30
2018-07-01T01:02:31.180Z,14.33
2018-07-01T01:05:00.304Z,14.33
2018-07-01T01:07:29.472Z,14.32
2018-07-01T01:09:58.640Z,14.31
2018-07-01T01:12:27.784Z,14.32
2018-07-01T01:14:56.944Z,14.20
2018-07-01T01:17:26.096Z,14.18
2018-07-01T01:19:55.287Z,14.17
2018-07-01T01:22:24.438Z,14.14
2018-07-01T01:24:53.620Z,14.09
2018-07-01T01:27:22.767Z,14.14
2018-07-01T01:29:51.912Z,14.17
2018-07-01T01:32:21.072Z,14.14
2018-07-01T01:34:50.226Z,14.09
2018-07-01T01:37:19.371Z,14.07
2018-07-01T01:39:48.527Z,14.11
2018-07-01T01:42:29.256Z,14.00
2018-07-01T01:45:02.110Z,14.02
2018-07-01T01:47:37.187Z,13.95
2018-07-01T01:50:14.809Z,13.93
2018-07-01T01:52:52.340Z,14.04
2018-07-01T01:56:33.348Z,13.99
2018-07-01T01:59:12.366Z,13.90
2018-07-01T02:01:52.172Z,13.86
2018-07-01T02:04:25.378Z,13.85
2018-07-01T02:06:56.111Z,13.88
2018-07-01T02:09:28.316Z,13.87
2018-07-01T02:11:59.024Z,13.91
2018-07-01T02:14:34.602Z,13.87
2018-07-01T02:17:05.884Z,13.80
2018-07-01T02:19:34.990Z,13.78
2018-07-01T02:22:06.167Z,13.82
2018-07-01T02:24:38.210Z,13.78
2018-07-01T02:27:07.334Z,13.69
2018-07-01T02:29:36.451Z,13.64
2018-07-01T02:32:05.692Z,13.56
2018-07-01T02:34:34.867Z,13.50
2018-07-01T02:37:04.000Z,13.42
2018-07-01T02:39:33.140Z,13.42
2018-07-01T02:42:02.265Z,13.39
2018-07-01T02:44:31.384Z,13.38
2018-07-01T02:47:00.494Z,13.36
2018-07-01T02:49:29.620Z,13.32
2018-07-01T02:51:58.733Z,13.30
2018-07-01T02:54:27.864Z,13.24
2018-07-01T02:56:56.984Z,13.18
2018-07-01T02:59:26.114Z,13.11
2018-07-01T03:01:55.226Z,13.06
2018-07-01T03:04:24.347Z,13.02
2018-07-01T03:06:53.465Z,13.02
2018-07-01T03:09:22.581Z,12.97
2018-07-01T03:11:51.703Z,12.93
2018-07-01T03:14:20.828Z,12.93
2018-07-01T03:16:49.940Z,12.81
2018-07-01T03:19:19.073Z,12.78
2018-07-01T03:21:48.187Z,12.76
2018-07-01T03:24:17.314Z,12.64
2018-07-01T03:26:46.437Z,12.64
2018-07-01T03:29:15.563Z,12.51
2018-07-01T03:31:44.680Z,12.58
2018-07-01T03:34:13.883Z,12.56
2018-07-01T03:36:43.185Z,12.52
2018-07-01T03:39:12.304Z,12.50
2018-07-01T03:41:41.422Z,12.46
2018-07-01T03:44:10.550Z,12.54
2018-07-01T03:46:39.675Z,12.62
2018-07-01T03:49:08.824Z,12.67
2018-07-01T03:51:37.949Z,12.73
2018-07-01T03:54:07.079Z,12.71
2018-07-01T03:56:36.210Z,12.70
2018-07-01T03:59:05.340Z,12.79
2018-07-01T04:01:34.468Z,12.83
2018-07-01T04:04:03.596Z,12.78
2018-07-01T04:06:32.732Z,12.79
2018-07-01T04:09:01.865Z,12.79
2018-07-01T04:11:30.986Z,12.88
2018-07-01T04:14:00.118Z,12.97
2018-07-01T04:16:29.244Z,12.99
2018-07-01T04:18:58.364Z,12.97
2018-07-01T04:21:27.488Z,12.99
2018-07-01T04:23:56.624Z,13.06
2018-07-01T04:26:25.743Z,13.05
2018-07-01T04:28:54.948Z,13.05
2018-07-01T04:31:24.112Z,13.06
2018-07-01T04:33:53.332Z,13.21
2018-07-01T04:36:22.463Z,13.30
2018-07-01T04:38:51.571Z,13.28
2018-07-01T04:41:20.702Z,13.26
2018-07-01T04:43:49.843Z,13.32
2018-07-01T04:46:18.977Z,13.30
2018-07-01T04:48:48.083Z,13.37
2018-07-01T04:51:17.212Z,13.39
2018-07-01T04:53:46.349Z,13.44
2018-07-01T04:56:15.463Z,13.49
2018-07-01T04:58:44.574Z,13.62
2018-07-01T05:01:13.692Z,13.71
2018-07-01T05:03:42.848Z,13.70
2018-07-01T05:06:11.997Z,13.78
2018-07-01T05:08:41.128Z,13.65
2018-07-01T05:11:10.246Z,13.82
2018-07-01T05:13:39.394Z,13.78
2018-07-01T05:16:08.519Z,14.03
2018-07-01T05:18:37.659Z,14.02
2018-07-01T05:21:06.779Z,14.09
2018-07-01T05:23:35.886Z,14.07
2018-07-01T05:26:05.045Z,14.14
2018-07-01T05:28:34.154Z,14.25
2018-07-01T05:31:03.276Z,14.28
2018-07-01T05:33:32.388Z,14.32
2018-07-01T05:36:01.487Z,14.23
2018-07-01T05:38:30.615Z,14.43
2018-07-01T05:40:59.732Z,14.57
2018-07-01T05:43:28.853Z,14.69
2018-07-01T05:45:57.960Z,14.70
2018-07-01T05:48:27.079Z,14.86
2018-07-01T05:50:56.188Z,14.88
2018-07-01T05:53:25.315Z,14.97
2018-07-01T05:55:54.430Z,15.04
2018-07-01T05:58:23.556Z,15.26
2018-07-01T06:00:52.683Z,15.28
2018-07-01T06:03:21.834Z,15.36
2018-07-01T06:05:50.976Z,15.42
2018-07-01T06:08:20.118Z,15.58
2018-07-01T06:10:49.362Z,15.43
2018-07-01T06:13:18.552Z,15.51
2018-07-01T06:15:47.687Z,15.59
2018-07-01T06:18:16.826Z,15.61
2018-07-01T06:20:45.972Z,15.73
2018-07-01T06:23:15.116Z,15.86
2018-07-01T06:25:44.272Z,15.90
2018-07-01T06:28:13.411Z,15.85
2018-07-01T06:30:42.566Z,15.89
2018-07-01T06:33:11.728Z,15.90
2018-07-01T06:35:40.877Z,16.02
2018-07-01T06:38:10.028Z,16.06
2018-07-01T06:40:39.174Z,16.14
2018-07-01T06:43:08.306Z,16.16
2018-07-01T06:45:37.456Z,16.55
2018-07-01T06:48:06.857Z,16.53
2018-07-01T06:50:36.009Z,16.25
2018-07-01T06:53:05.292Z,16.49
2018-07-01T06:55:34.448Z,16.67
2018-07-01T06:58:03.588Z,16.71
2018-07-01T07:00:32.747Z,16.73
2018-07-01T07:03:01.879Z,16.72
2018-07-01T07:05:31.046Z,16.90
2018-07-01T07:08:00.280Z,17.32
2018-07-01T07:10:29.659Z,17.47
2018-07-01T07:12:58.905Z,17.37
2018-07-01T07:15:28.105Z,17.45
2018-07-01T07:17:57.241Z,17.40
2018-07-01T07:20:26.417Z,17.41
2018-07-01T07:22:55.627Z,17.57
2018-07-01T07:25:24.783Z,17.83
2018-07-01T07:27:53.923Z,18.19
2018-07-01T07:30:23.159Z,18.54
2018-07-01T07:32:52.312Z,18.31
2018-07-01T07:35:21.509Z,18.53
2018-07-01T07:37:50.682Z,18.53
2018-07-01T07:40:19.839Z,18.72
2018-07-01T07:42:48.987Z,18.63
2018-07-01T07:45:18.190Z,18.68
2018-07-01T07:47:47.304Z,18.70
2018-07-01T07:50:16.471Z,19.15
2018-07-01T07:52:45.611Z,19.25
2018-07-01T07:55:14.767Z,18.92
2018-07-01T07:57:44.198Z,19.12
2018-07-01T08:00:13.402Z,19.17
2018-07-01T08:02:42.552Z,19.15
2018-07-01T08:05:11.726Z,18.84
2018-07-01T08:07:40.953Z,18.99
2018-07-01T08:10:10.087Z,19.11
2018-07-01T08:12:39.919Z,19.04
2018-07-01T08:15:09.045Z,19.16
2018-07-01T08:17:38.181Z,19.36
2018-07-01T08:20:07.314Z,19.48
2018-07-01T08:22:36.480Z,19.91
2018-07-01T08:25:05.606Z,20.49
2018-07-01T08:27:34.740Z,20.53
2018-07-01T08:30:03.935Z,20.31
2018-07-01T08:32:33.073Z,20.61
2018-07-01T08:35:02.196Z,20.90
2018-07-01T08:37:31.330Z,20.34
2018-07-01T08:40:00.469Z,20.61
2018-07-01T08:42:30.787Z,20.49
2018-07-01T08:45:01.008Z,20.23
2018-07-01T08:47:30.517Z,19.75
2018-07-01T08:49:59.644Z,20.26
2018-07-01T08:52:28.868Z,20.15
2018-07-01T08:54:57.922Z,20.49
2018-07-01T08:57:27.100Z,20.72
2018-07-01T08:59:56.234Z,20.74
2018-07-01T09:02:25.373Z,20.43
2018-07-01T09:04:54.505Z,20.68
2018-07-01T09:07:23.647Z,20.59
2018-07-01T09:09:52.791Z,20.05
2018-07-01T09:12:21.908Z,20.37
2018-07-01T09:14:51.099Z,20.19
2018-07-01T09:17:20.336Z,20.36
2018-07-01T09:19:49.433Z,21.14
2018-07-01T09:22:18.572Z,21.64
2018-07-01T09:24:47.813Z,21.50
2018-07-01T09:27:17.013Z,21.59
2018-07-01T09:29:51.465Z,21.21
2018-07-01T09:32:20.600Z,21.60
2018-07-01T09:34:49.772Z,21.30
2018-07-01T09:37:18.909Z,21.83
2018-07-01T09:39:48.066Z,21.95
2018-07-01T09:42:17.210Z,21.04
2018-07-01T09:44:46.352Z,21.84
2018-07-01T09:47:15.490Z,21.86
2018-07-01T09:49:44.620Z,21.52
2018-07-01T09:52:13.748Z,21.47
2018-07-01T09:54:42.901Z,21.81
2018-07-01T09:57:12.015Z,21.98
2018-07-01T09:59:41.168Z,22.46
2018-07-01T10:02:10.292Z,22.51
2018-07-01T10:04:39.423Z,22.37
2018-07-01T10:07:08.641Z,21.45
2018-07-01T10:09:37.812Z,21.57
2018-07-01T10:12:07.280Z,22.11
2018-07-01T10:14:37.140Z,22.10
2018-07-01T10:17:06.344Z,22.44
2018-07-01T10:19:35.505Z,22.22
2018-07-01T10:22:04.680Z,21.21
2018-07-01T10:24:33.849Z,21.49
2018-07-01T10:27:03.104Z,22.16
2018-07-01T10:29:32.265Z,22.27
2018-07-01T10:32:01.719Z,22.07
2018-07-01T10:34:31.440Z,22.06
2018-07-01T10:37:01.126Z,21.92
2018-07-01T10:39:30.319Z,22.28
2018-07-01T10:41:59.485Z,22.28
2018-07-01T10:44:28.701Z,23.19
2018-07-01T10:46:57.873Z,23.33
2018-07-01T10:49:27.039Z,22.96
2018-07-01T10:51:56.221Z,23.15
2018-07-01T10:54:25.395Z,23.16
2018-07-01T10:56:54.576Z,23.56
2018-07-01T10:59:23.827Z,23.80
2018-07-01T11:01:53.015Z,23.17
2018-07-01T11:04:22.178Z,23.56
2018-07-01T11:06:51.361Z,23.87
2018-07-01T11:09:20.504Z,24.12
2018-07-01T11:11:49.725Z,24.34
2018-07-01T11:14:19.025Z,24.07
2018-07-01T11:16:48.313Z,23.93
2018-07-01T11:19:17.445Z,24.57
2018-07-01T11:21:46.592Z,24.37
2018-07-01T11:24:15.728Z,24.66
2018-07-01T11:26:44.982Z,24.21
2018-07-01T11:29:14.071Z,24.41
2018-07-01T11:31:43.224Z,25.26
2018-07-01T11:34:12.395Z,25.32
2018-07-01T11:36:41.620Z,25.15
2018-07-01T11:39:11.487Z,25.19
2018-07-01T11:41:40.921Z,24.40
2018-07-01T11:44:10.081Z,25.24
2018-07-01T11:46:39.237Z,24.99
2018-07-01T11:49:08.387Z,25.60
2018-07-01T11:51:37.539Z,26.31
2018-07-01T11:54:06.718Z,26.15
2018-07-01T11:56:35.868Z,25.60
2018-07-01T11:59:05.033Z,26.61
2018-07-01T12:01:34.188Z,26.84
2018-07-01T12:04:03.458Z,26.49
2018-07-01T12:06:32.621Z,25.19
2018-07-01T12:09:01.780Z,26.42
2018-07-01T12:11:30.945Z,26.75
2018-07-01T12:14:00.110Z,26.17
2018-07-01T12:16:29.267Z,26.06
2018-07-01T12:18:58.448Z,26.44
2018-07-01T12:21:27.603Z,26.77
2018-07-01T12:23:56.765Z,26.84
2018-07-01T12:26:25.919Z,25.98
2018-07-01T12:28:55.133Z,27.62
2018-07-01T12:31:24.245Z,27.11
2018-07-01T12:33:53.403Z,27.75
2018-07-01T12:36:22.560Z,27.74
2018-07-01T12:38:51.715Z,27.84
2018-07-01T12:41:20.912Z,27.64
2018-07-01T12:43:50.125Z,27.84
2018-07-01T12:46:19.282Z,27.53
2018-07-01T12:48:48.459Z,28.07
2018-07-01T12:51:17.600Z,28.11
2018-07-01T12:53:46.750Z,27.77
2018-07-01T12:56:15.960Z,27.72
2018-07-01T12:58:45.052Z,27.37
2018-07-01T13:01:14.206Z,27.75
2018-07-01T13:03:43.350Z,28.56
2018-07-01T13:06:12.511Z,28.54
2018-07-01T13:08:41.691Z,28.83
2018-07-01T13:11:10.857Z,27.98
2018-07-01T13:13:40.100Z,28.58
2018-07-01T13:16:09.275Z,28.66
2018-07-01T13:18:38.507Z,29.37
2018-07-01T13:21:07.692Z,28.23
2018-07-01T13:23:36.851Z,28.82
2018-07-01T13:26:06.036Z,29.11
2018-07-01T13:28:35.182Z,27.99
2018-07-01T13:31:04.366Z,28.59
2018-07-01T13:33:33.582Z,29.01
2018-07-01T13:36:02.733Z,28.40
2018-07-01T13:38:34.982Z,28.49
2018-07-01T13:41:05.403Z,28.73
2018-07-01T13:43:34.564Z,29.25
2018-07-01T13:46:19.771Z,28.94
2018-07-01T13:48:49.169Z,29.85
2018-07-01T13:51:18.553Z,29.16
2018-07-01T13:53:47.828Z,29.23
2018-07-01T13:56:17.088Z,28.57
2018-07-01T13:58:46.350Z,28.80
2018-07-01T14:01:15.512Z,28.17
2018-07-01T14:03:44.667Z,28.98
2018-07-01T14:06:13.816Z,30.14
2018-07-01T14:08:43.021Z,30.67
2018-07-01T14:11:12.127Z,30.30
2018-07-01T14:13:41.278Z,29.89
2018-07-01T14:16:10.443Z,29.32
2018-07-01T14:18:39.834Z,29.79
2018-07-01T14:21:09.001Z,30.72
2018-07-01T14:23:38.401Z,30.08
2018-07-01T14:26:07.576Z,30.08
2018-07-01T14:28:36.761Z,29.89
2018-07-01T14:31:05.946Z,29.78
2018-07-01T14:33:35.105Z,30.03
2018-07-01T14:36:04.260Z,29.66
2018-07-01T14:38:33.563Z,29.01
2018-07-01T14:41:02.711Z,28.29
2018-07-01T14:43:31.879Z,29.75
2018-07-01T14:46:01.012Z,30.03
2018-07-01T14:48:30.179Z,30.82
2018-07-01T14:50:59.320Z,29.85
2018-07-01T14:53:28.472Z,30.46
2018-07-01T14:55:57.641Z,29.83
2018-07-01T14:58:26.799Z,30.71
2018-07-01T15:00:55.953Z,29.55
2018-07-01T15:03:25.158Z,30.18
2018-07-01T15:05:54.245Z,30.96
2018-07-01T15:08:23.370Z,31.49
2018-07-01T15:10:52.493Z,31.69
2018-07-01T15:13:21.630Z,30.54
2018-07-01T15:15:50.746Z,30.63
2018-07-01T15:18:25.631Z,30.10
2018-07-01T15:20:54.809Z,29.68
2018-07-01T15:23:24.327Z,30.50
2018-07-01T15:25:53.732Z,30.71
2018-07-01T15:28:22.874Z,29.76
2018-07-01T15:30:51.996Z,29.74
2018-07-01T15:33:21.121Z,30.58
2018-07-01T15:35:50.313Z,29.49
2018-07-01T15:38:19.424Z,30.32
2018-07-01T15:40:48.561Z,30.26
2018-07-01T15:43:17.707Z,30.08
2018-07-01T15:45:46.846Z,30.68
2018-07-01T15:48:17.638Z,30.68
2018-07-01T15:50:46.754Z,31.71
2018-07-01T15:53:15.873Z,31.31
2018-07-01T15:55:45.000Z,30.54
2018-07-01T15:58:14.132Z,30.50
2018-07-01T16:00:43.268Z,30.74
2018-07-01T16:03:12.395Z,29.95
2018-07-01T16:05:41.519Z,29.45
2018-07-01T16:08:10.681Z,29.61
2018-07-01T16:10:39.836Z,29.93
2018-07-01T16:13:08.972Z,30.94
2018-07-01T16:15:38.138Z,30.14
2018-07-01T16:18:07.303Z,30.99
2018-07-01T16:20:36.472Z,29.83
2018-07-01T16:23:05.830Z,30.98
2018-07-01T16:25:38.360Z,29.07
2018-07-01T16:28:12.804Z,30.52
2018-07-01T16:30:41.956Z,30.51
2018-07-01T16:33:11.136Z,30.06
2018-07-01T16:35:40.287Z,30.98
2018-07-01T16:38:09.441Z,28.86
2018-07-01T16:40:38.638Z,28.01
2018-07-01T16:43:07.794Z,29.91
2018-07-01T16:45:36.959Z,30.59
2018-07-01T16:48:06.108Z,30.09
2018-07-01T16:50:35.279Z,30.32
2018-07-01T16:53:04.554Z,29.18
2018-07-01T16:55:33.738Z,29.44
2018-07-01T16:58:02.892Z,29.30
2018-07-01T17:00:32.068Z,28.65
2018-07-01T17:03:01.984Z,29.52
2018-07-01T17:05:31.987Z,28.78
2018-07-01T17:08:01.640Z,29.14
2018-07-01T17:10:31.675Z,29.07
2018-07-01T17:13:01.442Z,29.12
2018-07-01T17:15:30.866Z,29.55
2018-07-01T17:18:00.040Z,29.63
2018-07-01T17:20:29.477Z,29.11
2018-07-01T17:22:58.802Z,28.84
2018-07-01T17:25:28.506Z,29.74
2018-07-01T17:27:57.801Z,29.93
2018-07-01T17:30:27.172Z,29.86
2018-07-01T17:33:04.044Z,29.07
2018-07-01T17:35:34.527Z,28.77
2018-07-01T17:38:04.736Z,27.78
2018-07-01T17:40:34.368Z,28.45
2018-07-01T17:43:04.209Z,28.47
2018-07-01T17:45:34.083Z,28.93
2018-07-01T17:48:04.196Z,27.33
2018-07-01T17:50:34.207Z,28.65
2018-07-01T17:53:04.594Z,28.04
2018-07-01T17:55:33.760Z,27.52
2018-07-01T17:58:02.941Z,27.30
2018-07-01T18:00:32.068Z,27.35
2018-07-01T18:03:01.228Z,27.20
2018-07-01T18:05:30.345Z,28.09
2018-07-01T18:07:59.553Z,27.58
2018-07-01T18:10:28.711Z,28.00
2018-07-01T18:12:57.836Z,27.40
2018-07-01T18:15:26.959Z,25.94
2018-07-01T18:17:56.103Z,24.60
2018-07-01T18:20:25.248Z,24.03
2018-07-01T18:23:27.411Z,23.85
2018-07-01T18:25:23.504Z,23.80
2018-07-01T18:28:03.602Z,23.68
2018-07-01T18:30:21.744Z,23.42
2018-07-01T18:32:50.917Z,23.26
2018-07-01T18:35:20.119Z,22.96
2018-07-01T18:37:49.520Z,22.91
2018-07-01T18:40:19.060Z,22.68
2018-07-01T18:42:48.236Z,22.86
2018-07-01T18:45:17.375Z,22.54
2018-07-01T18:47:46.496Z,22.42
2018-07-01T18:50:16.084Z,22.35
2018-07-01T18:52:45.222Z,22.28
2018-07-01T18:55:14.428Z,22.24
2018-07-01T18:57:43.553Z,22.11
2018-07-01T19:00:12.836Z,21.98
2018-07-01T19:02:41.920Z,21.83
2018-07-01T19:05:11.096Z,21.72
2018-07-01T19:07:40.281Z,21.70
2018-07-01T19:10:09.409Z,21.57
2018-07-01T19:12:38.639Z,21.43
2018-07-01T19:15:07.833Z,21.27
2018-07-01T19:17:37.025Z,21.23
2018-07-01T19:20:06.253Z,21.20
2018-07-01T19:22:35.390Z,21.08
2018-07-01T19:25:04.551Z,21.01
2018-07-01T19:27:33.693Z,20.89
2018-07-01T19:30:02.828Z,20.70
2018-07-01T19:32:31.961Z,20.62
2018-07-01T19:35:01.116Z,20.46
2018-07-01T19:37:30.248Z,20.46
2018-07-01T19:39:59.417Z,20.42
2018-07-01T19:42:28.643Z,20.19
2018-07-01T19:44:57.693Z,20.05
2018-07-01T19:47:26.977Z,19.88
2018-07-01T19:49:56.129Z,19.80
2018-07-01T19:52:25.334Z,19.65
2018-07-01T19:54:54.395Z,19.59
2018-07-01T19:57:23.507Z,19.57
2018-07-01T19:59:52.637Z,19.49
2018-07-01T20:02:21.813Z,19.41
2018-07-01T20:04:50.953Z,19.37
2018-07-01T20:07:20.111Z,19.26
2018-07-01T20:09:49.247Z,19.25
2018-07-01T20:12:18.409Z,19.16
2018-07-01T20:14:47.540Z,19.16
2018-07-01T20:17:16.669Z,19.07
2018-07-01T20:19:45.808Z,18.99
2018-07-01T20:22:15.032Z,18.89
2018-07-01T20:24:44.153Z,18.83
2018-07-01T20:27:13.384Z,18.88
2018-07-01T20:29:42.517Z,18.73
2018-07-01T20:32:11.648Z,18.70
2018-07-01T20:34:40.772Z,18.68
2018-07-01T20:37:09.890Z,18.58
2018-07-01T20:39:39.024Z,18.57
2018-07-01T20:42:08.195Z,18.45
2018-07-01T20:44:37.315Z,18.38
2018-07-01T20:47:06.483Z,18.30
2018-07-01T20:49:35.599Z,18.28
2018-07-01T20:52:04.711Z,18.19
2018-07-01T20:54:33.824Z,18.15
2018-07-01T20:57:03.037Z,18.13
2018-07-01T20:59:32.186Z,18.03
2018-07-01T21:02:01.375Z,18.06
2018-07-01T21:04:30.506Z,17.96
2018-07-01T21:06:59.627Z,17.85
2018-07-01T21:09:28.770Z,17.77
2018-07-01T21:11:57.989Z,17.77
2018-07-01T21:14:27.147Z,17.69
2018-07-01T21:16:56.323Z,17.58
2018-07-01T21:19:25.539Z,17.54
2018-07-01T21:21:54.696Z,17.44
2018-07-01T21:24:23.853Z,17.37
2018-07-01T21:26:53.058Z,17.30
2018-07-01T21:29:22.197Z,17.28
2018-07-01T21:31:51.424Z,17.27
2018-07-01T21:34:20.637Z,17.22
2018-07-01T21:36:49.824Z,17.10
2018-07-01T21:39:19.050Z,17.12
2018-07-01T21:41:48.243Z,17.06
2018-07-01T21:44:17.404Z,16.96
2018-07-01T21:46:46.552Z,16.87
2018-07-01T21:49:15.986Z,16.80
2018-07-01T21:51:45.128Z,16.82
2018-07-01T21:54:14.269Z,16.90
2018-07-01T21:56:43.427Z,16.81
2018-07-01T21:59:12.582Z,16.72
2018-07-01T22:01:41.741Z,16.70
2018-07-01T22:04:10.936Z,16.67
2018-07-01T22:06:45.375Z,16.59
2018-07-01T22:09:14.533Z,16.57
2018-07-01T22:12:07.287Z,16.49
2018-07-01T22:14:53.359Z,16.51
2018-07-01T22:17:22.476Z,16.40
2018-07-01T22:19:51.609Z,16.30
2018-07-01T22:22:20.722Z,16.24
2018-07-01T22:24:49.849Z,16.24
2018-07-01T22:27:18.987Z,16.17
2018-07-01T22:29:48.102Z,16.14
2018-07-01T22:32:17.211Z,16.05
2018-07-01T22:34:46.356Z,16.00
2018-07-01T22:37:15.477Z,16.00
2018-07-01T22:39:44.591Z,15.96
2018-07-01T22:42:13.716Z,15.89
2018-07-01T22:44:42.828Z,15.84
2018-07-01T22:47:12.142Z,15.80
2018-07-01T22:49:41.283Z,15.84
2018-07-01T22:52:10.411Z,15.84
2018-07-01T22:54:39.536Z,15.79
2018-07-01T22:57:08.659Z,15.75
2018-07-01T22:59:37.776Z,15.71
2018-07-01T23:03:21.170Z,15.72
2018-07-01T23:05:50.282Z,15.71
2018-07-01T23:08:19.417Z,15.57
2018-07-01T23:10:48.533Z,15.48
2018-07-01T23:13:17.639Z,15.40
2018-07-01T23:15:46.758Z,15.39
2018-07-01T23:18:15.887Z,15.32
2018-07-01T23:20:44.991Z,15.25
2018-07-01T23:23:14.114Z,15.20
2018-07-01T23:25:43.246Z,15.15
2018-07-01T23:28:12.358Z,15.09
2018-07-01T23:30:41.470Z,15.02
2018-07-01T23:33:10.599Z,14.98
2018-07-01T23:35:39.712Z,14.92
2018-07-01T23:38:08.826Z,14.95
2018-07-01T23:40:37.931Z,14.92
2018-07-01T23:43:07.079Z,14.88
2018-07-01T23:45:36.201Z,14.90
2018-07-01T23:48:05.746Z,14.86
2018-07-01T23:50:34.863Z,14.80
2018-07-01T23:53:03.996Z,14.79
2018-07-01T23:55:33.111Z,14.78
2018-07-01T23:58:02.263Z,14.80
